createdAt,value
2023-02-14T00:00:58.000Z,56.82
2023-02-14T00:04:01.531Z,57.82
2023-02-14T00:07:03.460Z,56.45
2023-02-14T00:10:05.696Z,57.23
2023-02-14T00:13:07.651Z,58.33
2023-02-14T00:16:09.561Z,58.25
2023-02-14T00:19:12.377Z,56.68
2023-02-14T00:22:14.273Z,58.89
2023-02-14T00:25:16.442Z,58.96
2023-02-14T00:28:18.335Z,59.27
2023-02-14T00:31:20.314Z,59.55
2023-02-14T00:34:22.293Z,60.77
2023-02-14T00:37:24.229Z,60.41
2023-02-14T00:40:26.432Z,60.19
2023-02-14T00:43:28.313Z,60.92
2023-02-14T00:46:30.205Z,59.85
2023-02-14T00:49:32.178Z,60.50
2023-02-14T00:52:34.084Z,60.27
2023-02-14T00:55:36.011Z,60.71
2023-02-14T00:58:37.920Z,60.24
2023-02-14T01:01:39.853Z,60.72
2023-02-14T01:04:41.820Z,58.29
2023-02-14T01:07:43.813Z,57.82
2023-02-14T01:10:46.163Z,58.32
2023-02-14T01:13:48.608Z,60.06
2023-02-14T01:16:50.598Z,60.35
2023-02-14T01:19:52.676Z,60.77
2023-02-14T01:22:54.704Z,60.62
2023-02-14T01:25:56.827Z,60.80
2023-02-14T01:28:58.786Z,61.36
2023-02-14T01:32:01.037Z,60.65
2023-02-14T01:35:03.109Z,61.31
2023-02-14T01:38:04.948Z,60.51
2023-02-14T01:41:06.856Z,60.68
2023-02-14T01:44:14.839Z,60.12
2023-02-14T01:47:16.743Z,59.86
2023-02-14T01:50:22.632Z,60.10
2023-02-14T01:53:27.021Z,60.22
2023-02-14T01:56:30.482Z,60.19
2023-02-14T01:59:34.216Z,60.62
2023-02-14T02:02:36.224Z,59.42
2023-02-14T02:05:38.731Z,58.50
2023-02-14T02:08:42.680Z,58.68
2023-02-14T02:11:44.936Z,59.20
2023-02-14T02:14:47.131Z,59.00
2023-02-14T02:17:51.716Z,58.94
2023-02-14T02:21:13.972Z,59.67
2023-02-14T02:24:24.244Z,60.04
2023-02-14T02:28:04.866Z,60.25
2023-02-14T02:31:25.777Z,61.58
2023-02-14T02:34:39.816Z,61.36
2023-02-14T02:37:55.599Z,61.15
2023-02-14T02:41:00.707Z,60.66
2023-02-14T02:44:16.042Z,60.39
2023-02-14T02:47:20.112Z,60.87
2023-02-14T02:50:46.691Z,62.32
2023-02-14T02:53:51.325Z,61.44
2023-02-14T02:56:56.131Z,61.64
2023-02-14T02:59:58.096Z,61.44
2023-02-14T03:03:18.963Z,59.47
2023-02-14T03:06:20.958Z,60.22
2023-02-14T03:09:22.753Z,61.65
2023-02-14T03:12:30.807Z,61.10
2023-02-14T03:15:36.840Z,61.01
2023-02-14T03:19:09.772Z,62.56
2023-02-14T03:22:18.788Z,62.25
2023-02-14T03:25:30.675Z,61.46
2023-02-14T03:28:47.913Z,59.87
2023-02-14T03:31:55.749Z,60.74
2023-02-14T03:34:59.506Z,63.71
2023-02-14T03:38:04.324Z,64.82
2023-02-14T03:41:07.808Z,62.70
2023-02-14T03:44:13.004Z,62.02
2023-02-14T03:47:17.023Z,62.61
2023-02-14T03:50:19.891Z,64.84
2023-02-14T03:53:22.892Z,65.98
2023-02-14T03:56:43.607Z,65.17
2023-02-14T03:59:46.017Z,64.91
2023-02-14T04:02:59.215Z,62.80
2023-02-14T04:06:01.169Z,64.40
2023-02-14T04:09:03.422Z,63.71
2023-02-14T04:12:05.384Z,66.23
2023-02-14T04:15:07.478Z,68.51
2023-02-14T04:18:28.293Z,65.83
2023-02-14T04:21:30.092Z,65.88
2023-02-14T04:24:31.972Z,65.13
2023-02-14T04:27:33.882Z,66.98
2023-02-14T04:30:35.814Z,65.18
2023-02-14T04:33:39.376Z,66.22
2023-02-14T04:36:41.235Z,65.84
2023-02-14T04:39:43.217Z,69.19
2023-02-14T04:42:46.594Z,65.74
2023-02-14T04:45:48.790Z,65.77
2023-02-14T04:48:50.840Z,66.97
2023-02-14T04:51:52.722Z,68.23
2023-02-14T04:54:54.614Z,67.13
2023-02-14T04:57:56.742Z,69.75
2023-02-14T05:00:59.139Z,67.57
2023-02-14T05:04:01.213Z,66.90
2023-02-14T05:07:03.065Z,66.60
2023-02-14T05:10:05.425Z,64.81
2023-02-14T05:13:07.251Z,65.55
2023-02-14T05:16:09.271Z,64.39
2023-02-14T05:19:11.177Z,63.95
2023-02-14T05:22:13.246Z,64.21
2023-02-14T05:25:15.374Z,64.99
2023-02-14T05:28:17.919Z,64.00
2023-02-14T05:31:20.231Z,62.85
2023-02-14T05:34:22.295Z,62.37
2023-02-14T05:37:24.235Z,62.02
2023-02-14T05:43:27.293Z,63.81
2023-02-14T05:46:29.195Z,63.53
2023-02-14T05:49:31.075Z,66.90
2023-02-14T05:52:32.944Z,65.54
2023-02-14T05:55:34.912Z,64.91
2023-02-14T05:58:36.824Z,62.26
2023-02-14T06:01:38.877Z,60.35
2023-02-14T06:04:40.833Z,61.54
2023-02-14T06:07:43.741Z,61.52
2023-02-14T06:10:46.235Z,61.65
2023-02-14T06:13:48.187Z,62.05
2023-02-14T06:16:50.270Z,62.57
2023-02-14T06:19:52.131Z,61.35
2023-02-14T06:22:54.202Z,61.89
2023-02-14T06:25:56.451Z,62.79
2023-02-14T06:28:58.630Z,64.15
2023-02-14T06:32:05.954Z,65.06
2023-02-14T06:35:08.211Z,64.78
2023-02-14T06:38:10.066Z,62.11
2023-02-14T06:41:12.043Z,59.00
2023-02-14T06:44:14.316Z,55.56
2023-02-14T06:47:16.271Z,53.99
2023-02-14T06:50:18.512Z,52.46
2023-02-14T06:53:20.684Z,48.81
2023-02-14T06:56:22.571Z,46.73
2023-02-14T06:59:24.534Z,45.16
2023-02-14T07:02:26.704Z,43.30
2023-02-14T07:05:28.818Z,44.74
2023-02-14T07:08:30.874Z,46.68
2023-02-14T07:11:33.134Z,46.16
2023-02-14T07:14:35.065Z,42.58
2023-02-14T07:17:36.970Z,45.79
2023-02-14T07:20:38.978Z,41.36
2023-02-14T07:23:41.582Z,40.00
2023-02-14T07:26:43.505Z,39.59
2023-02-14T07:29:45.373Z,38.14
2023-02-14T07:32:49.478Z,40.47
2023-02-14T07:35:51.366Z,40.59
2023-02-14T07:38:53.304Z,46.22
2023-02-14T07:41:55.243Z,52.99
2023-02-14T07:44:57.305Z,52.30
2023-02-14T07:48:02.091Z,56.42
2023-02-14T07:51:04.242Z,58.83
2023-02-14T07:54:06.165Z,59.30
2023-02-14T07:57:08.007Z,58.77
2023-02-14T08:00:10.155Z,57.15
2023-02-14T08:03:14.851Z,58.20
2023-02-14T08:06:17.562Z,59.67
2023-02-14T08:09:25.522Z,61.05
2023-02-14T08:12:46.440Z,59.82
2023-02-14T08:16:06.799Z,57.46
2023-02-14T08:19:09.066Z,59.65
2023-02-14T08:22:10.977Z,55.28
2023-02-14T08:25:12.998Z,53.58
2023-02-14T08:28:15.145Z,54.64
2023-02-14T08:31:34.509Z,54.18
2023-02-14T08:34:37.397Z,56.64
2023-02-14T08:37:39.399Z,52.59
2023-02-14T08:40:41.805Z,51.65
2023-02-14T08:43:44.052Z,55.29
2023-02-14T08:46:46.140Z,57.13
2023-02-14T08:49:48.211Z,53.99
2023-02-14T08:52:50.234Z,52.52
2023-02-14T08:55:52.588Z,51.60
2023-02-14T08:58:55.026Z,52.19
2023-02-14T09:01:57.076Z,51.18
2023-02-14T09:04:58.970Z,54.29
2023-02-14T09:08:02.261Z,55.31
2023-02-14T09:11:10.727Z,54.39
2023-02-14T09:14:12.882Z,50.95
2023-02-14T09:17:15.480Z,49.94
2023-02-14T09:20:17.715Z,52.80
2023-02-14T09:23:19.763Z,51.11
2023-02-14T09:26:21.880Z,53.07
2023-02-14T09:29:24.370Z,54.53
2023-02-14T09:32:29.441Z,50.20
2023-02-14T09:35:31.626Z,51.23
2023-02-14T09:38:33.498Z,49.96
2023-02-14T09:41:54.818Z,52.54
2023-02-14T09:45:00.943Z,49.43
2023-02-14T09:48:21.161Z,47.58
2023-02-14T09:51:26.130Z,47.69
2023-02-14T09:54:29.150Z,48.52
2023-02-14T09:57:39.946Z,51.91
2023-02-14T10:00:45.004Z,50.79
2023-02-14T10:03:50.278Z,50.74
2023-02-14T10:06:53.277Z,49.78
2023-02-14T10:10:15.373Z,49.97
2023-02-14T10:13:19.645Z,50.62
2023-02-14T10:16:28.708Z,50.97
2023-02-14T10:19:43.547Z,50.99
2023-02-14T10:22:47.171Z,52.21
2023-02-14T10:25:52.288Z,49.23
2023-02-14T10:28:54.446Z,49.40
2023-02-14T10:32:00.984Z,49.02
2023-02-14T10:35:05.648Z,48.58
2023-02-14T10:38:10.993Z,47.25
2023-02-14T10:41:31.740Z,43.34
2023-02-14T10:44:42.980Z,39.64
2023-02-14T10:47:51.373Z,39.20
2023-02-14T10:50:58.181Z,39.49
2023-02-14T10:54:06.749Z,35.13
2023-02-14T10:57:19.424Z,31.28
2023-02-14T11:00:22.530Z,33.22
2023-02-14T11:03:24.722Z,29.70
2023-02-14T11:06:27.932Z,33.32
2023-02-14T11:09:29.967Z,31.07
2023-02-14T11:12:39.760Z,30.21
2023-02-14T11:15:41.699Z,30.48
2023-02-14T11:18:44.355Z,32.79
2023-02-14T11:21:47.255Z,33.15
2023-02-14T11:24:49.559Z,34.87
2023-02-14T11:28:05.189Z,32.35
2023-02-14T11:31:07.178Z,31.50
2023-02-14T11:34:28.055Z,29.73
2023-02-14T11:37:30.928Z,29.38
2023-02-14T11:40:39.285Z,29.14
2023-02-14T11:43:42.809Z,34.66
2023-02-14T11:46:53.194Z,35.44
2023-02-14T11:50:22.134Z,30.46
2023-02-14T11:53:26.275Z,32.51
2023-02-14T11:56:42.429Z,33.85
2023-02-14T11:59:45.420Z,31.47
2023-02-14T12:02:49.123Z,34.37
2023-02-14T12:05:56.464Z,33.71
2023-02-14T12:09:32.068Z,29.50
2023-02-14T12:12:34.725Z,26.54
2023-02-14T12:15:40.818Z,25.95
2023-02-14T12:18:43.308Z,25.31
2023-02-14T12:21:45.488Z,24.26
2023-02-14T12:24:50.003Z,28.62
2023-02-14T12:28:03.584Z,31.11
2023-02-14T12:31:09.849Z,35.02
2023-02-14T12:34:12.261Z,37.30
2023-02-14T12:37:17.996Z,35.96
2023-02-14T12:40:39.125Z,36.86
2023-02-14T12:43:41.140Z,36.69
2023-02-14T12:46:46.911Z,32.23
2023-02-14T12:50:08.069Z,29.95
2023-02-14T12:57:07.606Z,30.70
2023-02-14T13:00:09.607Z,33.11
2023-02-14T13:03:14.370Z,30.37
2023-02-14T13:06:35.115Z,29.63
2023-02-14T13:09:57.385Z,30.23
2023-02-14T13:13:06.537Z,25.37
2023-02-14T13:16:08.633Z,26.48
2023-02-14T13:19:13.910Z,22.98
2023-02-14T13:22:17.823Z,21.31
2023-02-14T13:25:34.006Z,25.19
2023-02-14T13:28:36.616Z,23.68
2023-02-14T13:31:38.762Z,25.75
2023-02-14T13:34:45.578Z,24.59
2023-02-14T13:37:55.122Z,25.35
2023-02-14T13:40:58.318Z,26.09
2023-02-14T13:44:05.485Z,24.04
2023-02-14T13:47:08.300Z,20.15
2023-02-14T13:50:18.416Z,21.62
2023-02-14T13:53:39.046Z,20.67
2023-02-14T13:56:40.963Z,19.03
2023-02-14T13:59:42.900Z,16.58
2023-02-14T14:02:49.184Z,19.18
2023-02-14T14:05:58.080Z,19.45
2023-02-14T14:09:00.440Z,18.03
2023-02-14T14:12:02.587Z,21.27
2023-02-14T14:15:04.462Z,24.73
2023-02-14T14:18:15.979Z,28.71
2023-02-14T14:21:30.361Z,28.30
2023-02-14T14:24:33.239Z,29.00
2023-02-14T14:27:36.334Z,26.34
2023-02-14T14:30:38.392Z,29.23
2023-02-14T14:33:40.366Z,25.22
2023-02-14T14:36:42.295Z,24.46
2023-02-14T14:39:49.769Z,28.73
2023-02-14T14:42:51.854Z,32.53
2023-02-14T14:45:56.090Z,34.91
2023-02-14T14:48:58.109Z,34.43
2023-02-14T14:52:00.276Z,34.60
2023-02-14T14:55:02.463Z,35.45
2023-02-14T14:58:05.705Z,38.14
2023-02-14T15:01:10.390Z,34.70
2023-02-14T15:04:16.748Z,35.21
2023-02-14T15:07:21.154Z,37.87
2023-02-14T15:10:26.118Z,37.52
2023-02-14T15:13:51.363Z,38.43
2023-02-14T15:16:54.802Z,37.94
2023-02-14T15:19:58.033Z,36.88
2023-02-14T15:23:00.031Z,36.70
2023-02-14T15:26:02.161Z,36.22
2023-02-14T15:29:07.497Z,40.21
2023-02-14T15:32:09.610Z,40.52
2023-02-14T15:35:11.655Z,40.43
2023-02-14T15:38:13.882Z,38.58
2023-02-14T15:41:15.874Z,40.51
2023-02-14T15:44:21.377Z,41.21
2023-02-14T15:47:23.452Z,40.92
2023-02-14T15:50:27.811Z,40.65
2023-02-14T15:53:33.620Z,40.55
2023-02-14T15:56:36.616Z,41.02
2023-02-14T15:59:41.158Z,41.56
2023-02-14T16:02:43.594Z,41.73
2023-02-14T16:05:48.713Z,42.43
2023-02-14T16:08:54.835Z,42.83
2023-02-14T16:11:56.767Z,41.73
2023-02-14T16:15:01.244Z,42.78
2023-02-14T16:18:08.317Z,42.36
2023-02-14T16:21:11.488Z,42.03
2023-02-14T16:24:13.987Z,41.31
2023-02-14T16:27:15.967Z,42.47
2023-02-14T16:30:18.477Z,41.69
2023-02-14T16:33:22.074Z,42.56
2023-02-14T16:36:27.896Z,41.94
2023-02-14T16:39:29.941Z,41.34
2023-02-14T16:42:32.975Z,41.13
2023-02-14T16:45:34.841Z,41.35
2023-02-14T16:48:39.235Z,42.24
2023-02-14T16:51:42.946Z,41.73
2023-02-14T16:54:44.945Z,42.32
2023-02-14T16:57:47.348Z,41.69
2023-02-14T17:00:49.484Z,42.21
2023-02-14T17:03:51.670Z,41.94
2023-02-14T17:06:54.327Z,42.95
2023-02-14T17:09:57.188Z,44.46
2023-02-14T17:12:59.438Z,43.04
2023-02-14T17:16:01.688Z,43.19
2023-02-14T17:19:03.730Z,44.45
2023-02-14T17:22:05.947Z,44.56
2023-02-14T17:25:08.122Z,43.94
2023-02-14T17:28:10.904Z,42.80
2023-02-14T17:31:13.190Z,44.33
2023-02-14T17:34:15.395Z,45.29
2023-02-14T17:37:19.028Z,44.94
2023-02-14T17:40:21.396Z,44.75
2023-02-14T17:43:24.255Z,44.52
2023-02-14T17:46:27.507Z,43.88
2023-02-14T17:49:29.488Z,44.54
2023-02-14T17:52:31.466Z,45.70
2023-02-14T17:55:35.821Z,47.24
2023-02-14T17:58:38.016Z,46.85
2023-02-14T18:01:40.063Z,46.30
2023-02-14T18:04:41.990Z,47.32
2023-02-14T18:07:44.337Z,49.50
2023-02-14T18:10:46.243Z,47.59
2023-02-14T18:13:48.595Z,46.47
2023-02-14T18:16:50.551Z,49.72
2023-02-14T18:19:52.800Z,47.18
2023-02-14T18:22:54.854Z,46.65
2023-02-14T18:25:57.898Z,46.84
2023-02-14T18:29:01.162Z,46.60
2023-02-14T18:32:04.880Z,46.90
2023-02-14T18:35:07.022Z,48.03
2023-02-14T18:38:08.899Z,48.23
2023-02-14T18:41:12.358Z,48.20
2023-02-14T18:44:14.686Z,49.48
2023-02-14T18:47:16.646Z,50.16
2023-02-14T18:50:18.674Z,49.71
2023-02-14T18:53:20.619Z,50.05
2023-02-14T18:56:23.666Z,49.31
2023-02-14T18:59:25.621Z,49.30
2023-02-14T19:02:27.596Z,49.04
2023-02-14T19:05:31.143Z,51.53
2023-02-14T19:08:33.835Z,50.25
2023-02-14T19:11:35.775Z,49.37
2023-02-14T19:14:37.708Z,50.21
2023-02-14T19:17:39.616Z,49.93
2023-02-14T19:20:41.501Z,49.58
2023-02-14T19:23:44.086Z,48.98
2023-02-14T19:26:46.397Z,48.70
2023-02-14T19:29:48.401Z,48.46
2023-02-14T19:32:50.425Z,49.03
2023-02-14T19:35:59.403Z,51.49
2023-02-14T19:39:01.308Z,48.06
2023-02-14T19:42:05.249Z,47.71
2023-02-14T19:45:07.631Z,50.13
2023-02-14T19:48:09.764Z,50.81
2023-02-14T19:51:15.873Z,50.17
2023-02-14T19:54:18.222Z,50.55
2023-02-14T19:57:20.236Z,49.87
2023-02-14T20:00:22.183Z,51.34
2023-02-14T20:03:24.399Z,50.81
2023-02-14T20:06:26.733Z,51.42
2023-02-14T20:09:29.272Z,50.87
2023-02-14T20:12:31.279Z,49.95
2023-02-14T20:15:34.793Z,50.78
2023-02-14T20:18:37.008Z,52.39
2023-02-14T20:21:42.945Z,52.58
2023-02-14T20:24:45.147Z,51.27
2023-02-14T20:27:47.055Z,52.30
2023-02-14T20:30:48.956Z,51.87
2023-02-14T20:33:51.988Z,51.88
2023-02-14T20:36:55.318Z,53.06
2023-02-14T20:39:57.313Z,52.71
2023-02-14T20:42:59.143Z,52.76
2023-02-14T20:46:01.509Z,55.62
2023-02-14T20:49:03.712Z,53.41
2023-02-14T20:52:05.982Z,53.76
2023-02-14T20:55:08.055Z,53.78
2023-02-14T20:58:10.350Z,54.08
2023-02-14T21:01:16.242Z,55.77
2023-02-14T21:04:18.145Z,54.42
2023-02-14T21:07:20.026Z,54.23
2023-02-14T21:10:22.045Z,54.26
2023-02-14T21:13:24.067Z,55.19
2023-02-14T21:16:26.259Z,55.20
2023-02-14T21:19:28.638Z,55.92
2023-02-14T21:22:30.674Z,57.60
2023-02-14T21:25:32.511Z,57.33
2023-02-14T21:28:34.385Z,53.92
2023-02-14T21:31:36.668Z,55.72
2023-02-14T21:34:40.934Z,56.25
2023-02-14T21:37:43.963Z,56.62
2023-02-14T21:40:48.140Z,58.22
2023-02-14T21:43:52.613Z,57.79
2023-02-14T21:46:54.631Z,57.87
2023-02-14T21:50:15.162Z,56.68
2023-02-14T21:53:17.213Z,56.75
2023-02-14T21:56:22.298Z,58.34
2023-02-14T21:59:24.376Z,59.09
2023-02-14T22:02:26.269Z,58.21
2023-02-14T22:05:28.375Z,56.87
2023-02-14T22:08:30.573Z,58.03
2023-02-14T22:11:32.506Z,57.86
2023-02-14T22:14:34.444Z,55.59
2023-02-14T22:17:36.407Z,56.11
2023-02-14T22:20:38.288Z,54.50
2023-02-14T22:23:40.345Z,55.39
2023-02-14T22:26:42.434Z,56.97
2023-02-14T22:29:44.448Z,59.34
2023-02-14T22:32:46.383Z,57.77
2023-02-14T22:35:48.256Z,56.80
2023-02-14T22:38:50.229Z,55.71
2023-02-14T22:41:52.167Z,55.01
2023-02-14T22:44:54.124Z,57.71
2023-02-14T22:47:56.257Z,59.27
2023-02-14T22:50:58.282Z,58.21
2023-02-14T22:54:04.767Z,58.51
2023-02-14T22:57:06.786Z,56.59
2023-02-14T23:00:11.699Z,60.46
2023-02-14T23:03:14.004Z,59.52
2023-02-14T23:06:16.069Z,59.95
2023-02-14T23:09:18.256Z,62.32
2023-02-14T23:12:38.864Z,61.55
2023-02-14T23:15:59.482Z,57.60
2023-02-14T23:19:20.018Z,58.87
2023-02-14T23:22:25.811Z,57.90
2023-02-14T23:25:27.639Z,59.60
2023-02-14T23:28:29.766Z,57.69
2023-02-14T23:31:31.766Z,61.22
2023-02-14T23:34:34.507Z,63.30
2023-02-14T23:37:36.382Z,58.89
2023-02-14T23:40:56.860Z,58.68
2023-02-14T23:43:59.289Z,58.37
2023-02-14T23:47:03.129Z,59.14
2023-02-14T23:50:05.174Z,56.94
2023-02-14T23:53:07.087Z,59.37
2023-02-14T23:56:08.989Z,57.74
2023-02-14T23:59:10.845Z,60.26
